Time;durP1;ratioP1;P1;durP2;ratioP2;P2;SDS_P1;SDS_P2;PMS_P1;PMS_P2;Temp;Humidity;BMP_temperature;BMP_pressure;BME280_temperature;BME280_humidity;BME280_pressure;Samples;Min_cycle;Max_cycle;Signal;HPM_P1;HPM_P2
2022/09/03 00:01:35;;;;;;;2.47;2.27;;;15.70;99.90;;;;;;4978384;28;20447;-73
2022/09/03 00:04:18;;;;;;;2.50;2.30;;;15.70;99.90;;;;;;4974534;28;20425;-73
2022/09/03 00:06:50;;;;;;;3.43;2.43;;;15.80;99.90;;;;;;4972300;28;20509;-73
2022/09/03 00:09:41;;;;;;;2.67;2.43;;;15.80;99.90;;;;;;4982971;28;20908;-73
2022/09/03 00:12:09;;;;;;;2.50;2.40;;;15.80;99.90;;;;;;4977648;28;20765;-72
2022/09/03 00:14:38;;;;;;;2.67;2.47;;;15.90;99.90;;;;;;4985242;28;20912;-73
2022/09/03 00:17:23;;;;;;;3.03;2.40;;;15.90;99.90;;;;;;4986223;28;20410;-73
2022/09/03 00:19:59;;;;;;;4.30;2.20;;;15.90;99.90;;;;;;4974886;28;20419;-72
2022/09/03 00:22:33;;;;;;;3.20;2.17;;;16.00;99.90;;;;;;4984292;28;20805;-73
2022/09/03 00:25:02;;;;;;;3.43;2.57;;;16.00;99.90;;;;;;4985942;28;20477;-73
2022/09/03 00:27:32;;;;;;;3.37;3.10;;;16.00;99.90;;;;;;4984326;28;20767;-72
2022/09/03 00:30:02;;;;;;;2.83;2.03;;;16.00;99.90;;;;;;4984845;28;20410;-72
2022/09/03 00:32:33;;;;;;;3.97;2.03;;;16.10;99.90;;;;;;4983201;28;20461;-72
2022/09/03 00:35:03;;;;;;;2.37;2.17;;;16.10;99.90;;;;;;4984728;28;20534;-72
2022/09/03 00:37:29;;;;;;;2.23;2.10;;;16.10;99.90;;;;;;4983068;28;20422;-73
2022/09/03 00:39:55;;;;;;;5.60;2.47;;;16.10;99.90;;;;;;4984283;28;20496;-72
2022/09/03 00:42:53;;;;;;;4.53;2.30;;;16.20;99.90;;;;;;4982799;28;20289;-72
2022/09/03 00:45:50;;;;;;;3.10;2.03;;;16.20;99.90;;;;;;4984042;28;20970;-72
2022/09/03 00:48:25;;;;;;;2.20;2.00;;;16.20;99.90;;;;;;4983224;28;20513;-72
2022/09/03 00:51:28;;;;;;;2.30;2.10;;;16.20;99.90;;;;;;4978173;28;20408;-72
2022/09/03 00:54:12;;;;;;;3.03;2.37;;;16.30;99.90;;;;;;4938066;28;20840;-72
2022/09/03 00:56:49;;;;;;;2.30;2.13;;;16.30;99.90;;;;;;4983245;28;20780;-72
2022/09/03 00:59:40;;;;;;;4.20;2.77;;;16.30;99.90;;;;;;4982931;28;20431;-73
2022/09/03 02:31:53;;;;;;;3.53;1.93;;;16.30;99.90;;;;;;5555923;23;20495;-72
2022/09/03 02:34:18;;;;;;;1.60;1.50;;;16.30;99.90;;;;;;4952797;29;20917;-70
2022/09/03 02:36:45;;;;;;;1.63;1.53;;;16.30;99.90;;;;;;4953693;28;20263;-72
2022/09/03 02:39:12;;;;;;;3.03;1.60;;;16.30;99.90;;;;;;4955805;29;20240;-71
2022/09/03 02:41:38;;;;;;;3.30;2.23;;;16.30;99.90;;;;;;4956220;29;20536;-70
2022/09/03 02:44:18;;;;;;;2.20;2.10;;;16.30;99.90;;;;;;4954769;29;20491;-72
2022/09/03 02:46:49;;;;;;;4.37;1.73;;;16.20;99.90;;;;;;4954639;29;20184;-72
2022/09/03 02:49:14;;;;;;;3.80;2.20;;;16.10;99.90;;;;;;4955761;28;20511;-71
2022/09/03 02:51:42;;;;;;;2.47;2.10;;;16.00;99.90;;;;;;4955620;28;20551;-71
2022/09/03 02:54:09;;;;;;;2.87;2.03;;;15.90;99.90;;;;;;4955559;29;20728;-71
2022/09/03 02:56:35;;;;;;;3.10;1.83;;;15.90;99.90;;;;;;4955664;28;20515;-71
2022/09/03 02:59:03;;;;;;;2.50;2.13;;;15.80;99.90;;;;;;4955385;29;20424;-71
2022/09/03 03:01:29;;;;;;;2.00;1.67;;;15.80;99.90;;;;;;4955439;28;20515;-71
2022/09/03 03:03:54;;;;;;;2.90;2.07;;;15.70;99.90;;;;;;4955537;29;20499;-71
2022/09/03 03:06:20;;;;;;;1.90;1.80;;;15.70;99.90;;;;;;4955178;28;20185;-69
2022/09/03 03:08:47;;;;;;;2.30;2.10;;;15.60;99.90;;;;;;4955344;29;20280;-72
2022/09/03 03:11:17;;;;;;;6.23;2.10;;;15.60;99.90;;;;;;4955183;28;20665;-72
2022/09/03 03:13:43;;;;;;;3.90;2.00;;;15.60;99.90;;;;;;4955390;28;20940;-71
2022/09/03 03:16:09;;;;;;;1.80;1.70;;;15.60;99.90;;;;;;4955281;28;20413;-72
2022/09/03 03:18:35;;;;;;;3.17;1.50;;;15.50;99.90;;;;;;4955008;28;20439;-72
2022/09/03 03:21:06;;;;;;;2.20;1.73;;;15.60;99.90;;;;;;4955018;28;20278;-72
2022/09/03 03:23:32;;;;;;;1.70;1.60;;;15.50;99.90;;;;;;4955161;28;20193;-71
2022/09/03 03:26:02;;;;;;;11.63;1.93;;;15.50;99.90;;;;;;4954878;28;20428;-72
2022/09/03 03:28:31;;;;;;;2.00;1.90;;;15.50;99.90;;;;;;4954789;28;20470;-72
2022/09/03 03:30:56;;;;;;;2.00;1.90;;;15.50;99.90;;;;;;4954749;28;20476;-72
2022/09/03 03:33:22;;;;;;;2.00;1.77;;;15.50;99.90;;;;;;4954782;28;20471;-72
2022/09/03 03:35:47;;;;;;;2.30;1.67;;;15.50;99.90;;;;;;4955016;28;20673;-71
2022/09/03 03:38:13;;;;;;;1.70;1.60;;;15.50;99.90;;;;;;4953906;28;20188;-71
2022/09/03 03:40:39;;;;;;;1.60;1.60;;;15.50;99.90;;;;;;4954840;28;20200;-71
2022/09/03 03:43:04;;;;;;;2.53;2.33;;;15.40;99.90;;;;;;4954789;28;20548;-71
2022/09/03 03:45:30;;;;;;;2.10;2.00;;;15.40;99.90;;;;;;4954615;28;20188;-72
2022/09/03 03:47:58;;;;;;;1.97;1.83;;;15.40;99.90;;;;;;4954581;28;20219;-72
2022/09/03 03:50:24;;;;;;;4.83;1.63;;;15.40;99.90;;;;;;4954600;28;20180;-72
2022/09/03 03:52:50;;;;;;;1.63;1.53;;;15.40;99.90;;;;;;4954680;28;20432;-71
2022/09/03 03:55:15;;;;;;;2.73;2.53;;;15.30;99.90;;;;;;4954373;28;20484;-72
2022/09/03 03:57:41;;;;;;;2.33;2.07;;;15.30;99.90;;;;;;4954225;29;20608;-72
2022/09/03 04:00:07;;;;;;;2.73;1.90;;;15.30;99.90;;;;;;4954387;28;20206;-72
2022/09/03 04:02:33;;;;;;;2.80;2.10;;;15.30;99.90;;;;;;4954480;29;20212;-72
2022/09/03 04:04:59;;;;;;;5.57;2.20;;;15.30;99.90;;;;;;4954418;28;20423;-72
2022/09/03 04:07:24;;;;;;;2.47;2.20;;;15.30;99.90;;;;;;4954358;29;20673;-72
2022/09/03 04:09:50;;;;;;;2.50;2.30;;;15.30;99.90;;;;;;4954194;28;20428;-72
2022/09/03 04:12:15;;;;;;;2.57;2.33;;;15.30;99.90;;;;;;4945100;29;20299;-72
2022/09/03 04:14:41;;;;;;;2.63;2.30;;;15.30;99.90;;;;;;4954181;28;20173;-72
2022/09/03 04:17:06;;;;;;;4.50;1.87;;;15.30;99.90;;;;;;4953865;28;20177;-72
2022/09/03 04:19:32;;;;;;;2.47;2.27;;;15.30;99.90;;;;;;4954391;29;20188;-72
2022/09/03 04:21:57;;;;;;;4.20;1.90;;;15.40;99.90;;;;;;4953925;29;20271;-71
2022/09/03 04:24:23;;;;;;;2.47;2.37;;;15.40;99.90;;;;;;4955741;29;20193;-72
2022/09/03 04:26:49;;;;;;;3.40;1.97;;;15.40;99.90;;;;;;4955638;29;20181;-72
2022/09/03 04:29:15;;;;;;;2.50;2.30;;;15.40;99.90;;;;;;4953810;29;20268;-72
2022/09/03 04:32:51;;;;;;;2.60;2.30;;;15.40;99.90;;;;;;4953595;28;20239;-72
2022/09/03 04:34:26;;;;;;;2.97;2.50;;;15.50;99.90;;;;;;4953635;29;20500;-72
2022/09/03 04:36:51;;;;;;;1.97;1.87;;;15.50;99.90;;;;;;4953524;29;20420;-72
2022/09/03 04:39:17;;;;;;;4.17;2.60;;;15.40;99.90;;;;;;4953636;29;20181;-71
2022/09/03 04:41:43;;;;;;;4.40;2.30;;;15.50;99.90;;;;;;4953548;28;20284;-71
2022/09/03 04:44:08;;;;;;;2.90;1.73;;;15.40;99.90;;;;;;4953632;29;20183;-72
2022/09/03 04:46:34;;;;;;;2.80;2.60;;;15.50;99.90;;;;;;4953247;28;20420;-72
2022/09/03 04:49:01;;;;;;;2.00;1.90;;;15.50;99.90;;;;;;4953281;28;20284;-71
2022/09/03 04:51:28;;;;;;;2.70;1.80;;;15.40;99.90;;;;;;4953247;28;20197;-71
2022/09/03 04:53:56;;;;;;;2.60;2.47;;;15.50;99.90;;;;;;4953777;29;20844;-72
2022/09/03 04:56:24;;;;;;;3.00;2.00;;;15.50;99.90;;;;;;4953257;28;20786;-71
2022/09/03 04:58:55;;;;;;;2.27;2.00;;;15.50;99.90;;;;;;4953605;29;20803;-72
2022/09/03 05:01:22;;;;;;;3.63;2.63;;;15.50;99.90;;;;;;4953067;28;20949;-72
2022/09/03 05:03:51;;;;;;;2.17;2.00;;;15.50;99.90;;;;;;4953647;29;20416;-72
2022/09/03 05:06:16;;;;;;;4.00;2.27;;;15.60;99.90;;;;;;4953286;28;20435;-72
2022/09/03 05:08:46;;;;;;;2.37;2.27;;;15.60;99.90;;;;;;4953095;28;20984;-72
2022/09/03 05:11:11;;;;;;;2.70;2.43;;;15.70;99.90;;;;;;4953058;28;20200;-73
2022/09/03 05:13:37;;;;;;;6.40;2.40;;;15.80;99.90;;;;;;4953227;28;20431;-71
2022/09/03 05:16:05;;;;;;;2.20;1.97;;;15.90;99.90;;;;;;4953181;28;20278;-71
2022/09/03 05:18:31;;;;;;;2.33;2.13;;;16.00;99.90;;;;;;4953100;28;20189;-71
2022/09/03 05:21:08;;;;;;;3.40;2.17;;;16.00;99.90;;;;;;4953326;28;20481;-71
2022/09/03 05:23:39;;;;;;;3.77;1.80;;;16.10;99.90;;;;;;4953213;28;20431;-71
2022/09/03 05:26:09;;;;;;;2.70;2.53;;;16.20;99.90;;;;;;4953291;28;20452;-71
2022/09/03 05:28:37;;;;;;;3.73;2.00;;;16.20;99.90;;;;;;4952755;28;20910;-70
2022/09/03 05:31:06;;;;;;;3.60;2.40;;;16.30;99.90;;;;;;4952785;28;20435;-72
2022/09/03 05:33:36;;;;;;;3.43;2.23;;;16.30;99.90;;;;;;4952909;28;20487;-71
2022/09/03 05:36:07;;;;;;;4.30;3.77;;;16.40;99.90;;;;;;4952961;28;20426;-71
2022/09/03 05:38:33;;;;;;;2.40;2.20;;;16.40;99.90;;;;;;4952595;28;20432;-71
2022/09/03 05:41:00;;;;;;;2.57;2.43;;;16.50;99.90;;;;;;4952975;28;20981;-70
2022/09/03 05:43:27;;;;;;;2.93;2.73;;;16.60;99.90;;;;;;4952657;28;20195;-69
2022/09/03 05:46:04;;;;;;;3.47;2.63;;;16.70;99.90;;;;;;4952940;28;20420;-70
2022/09/03 05:48:30;;;;;;;3.80;2.37;;;16.80;99.90;;;;;;4952536;28;20877;-68
2022/09/03 05:51:10;;;;;;;2.80;2.20;;;16.90;99.90;;;;;;4952943;28;20447;-69
2022/09/03 05:53:38;;;;;;;3.70;2.20;;;17.00;99.90;;;;;;4951985;29;20416;-68
2022/09/03 05:56:12;;;;;;;3.70;2.00;;;17.00;99.90;;;;;;4952769;28;20483;-69
2022/09/03 05:58:44;;;;;;;4.83;1.80;;;17.10;99.90;;;;;;4951942;29;20434;-68
2022/09/03 06:01:13;;;;;;;5.40;2.93;;;17.10;99.90;;;;;;4951966;28;20464;-69
2022/09/03 06:03:39;;;;;;;2.10;1.97;;;17.10;99.90;;;;;;4955547;28;21176;-69
2022/09/03 06:06:06;;;;;;;7.30;2.70;;;17.20;99.90;;;;;;4956163;28;20416;-68
2022/09/03 06:08:31;;;;;;;3.10;2.50;;;17.20;99.90;;;;;;4953956;29;20499;-70
2022/09/03 06:10:58;;;;;;;2.47;2.27;;;17.30;99.90;;;;;;4956115;28;20472;-69
2022/09/03 06:13:24;;;;;;;2.73;2.33;;;17.30;99.90;;;;;;4956363;28;20597;-70
2022/09/03 06:15:49;;;;;;;3.73;2.17;;;17.30;99.90;;;;;;4956212;28;20511;-70
2022/09/03 06:18:15;;;;;;;7.73;2.20;;;17.30;99.90;;;;;;4956179;28;20267;-70
2022/09/03 06:20:40;;;;;;;7.17;2.80;;;17.40;99.90;;;;;;4956096;28;20222;-70
2022/09/03 06:23:06;;;;;;;4.90;2.30;;;17.40;99.90;;;;;;4956075;28;20181;-69
2022/09/03 06:25:31;;;;;;;3.30;2.10;;;17.40;99.90;;;;;;4956042;29;20185;-69
2022/09/03 06:27:57;;;;;;;2.63;1.83;;;17.50;99.90;;;;;;4955678;28;20345;-70
2022/09/03 06:30:25;;;;;;;3.40;2.53;;;17.60;99.90;;;;;;4955775;29;20192;-70
2022/09/03 06:32:51;;;;;;;2.90;2.70;;;17.60;99.90;;;;;;4955869;28;20452;-70
2022/09/03 06:35:17;;;;;;;2.50;2.30;;;17.70;99.90;;;;;;4955806;29;20416;-69
2022/09/03 06:37:42;;;;;;;2.53;2.20;;;17.80;99.90;;;;;;4955643;28;20185;-70
2022/09/03 06:40:12;;;;;;;3.40;2.17;;;17.90;99.90;;;;;;4955755;29;20184;-70
2022/09/03 06:42:40;;;;;;;2.43;2.33;;;18.00;99.90;;;;;;4955636;28;20764;-70
2022/09/03 06:45:07;;;;;;;2.80;2.60;;;18.00;99.90;;;;;;4955663;29;20573;-70
2022/09/03 06:47:32;;;;;;;2.17;1.97;;;18.10;99.90;;;;;;4955403;28;20543;-70
2022/09/03 06:49:59;;;;;;;4.47;1.83;;;18.20;99.90;;;;;;4955372;29;20424;-69
2022/09/03 06:52:25;;;;;;;5.70;2.47;;;18.30;99.90;;;;;;4955528;28;20280;-69
2022/09/03 06:54:50;;;;;;;2.90;2.70;;;18.40;99.90;;;;;;4955546;28;20440;-70
2022/09/03 06:57:16;;;;;;;4.90;2.30;;;18.40;99.90;;;;;;4955301;28;20420;-70
2022/09/03 06:59:42;;;;;;;4.50;4.10;;;18.50;99.90;;;;;;4955470;28;20184;-70
2022/09/03 07:02:08;;;;;;;3.00;1.93;;;18.60;99.90;;;;;;4955134;28;20196;-70
2022/09/03 07:04:34;;;;;;;3.30;2.30;;;18.70;99.90;;;;;;4955432;28;20428;-70
2022/09/03 07:07:00;;;;;;;2.70;2.50;;;18.90;99.90;;;;;;4955023;28;20427;-69
2022/09/03 07:09:25;;;;;;;4.90;3.00;;;19.00;99.90;;;;;;4955399;28;20551;-70
2022/09/03 07:11:51;;;;;;;2.43;2.23;;;19.00;99.90;;;;;;4955307;28;20199;-71
2022/09/03 07:14:19;;;;;;;3.90;2.93;;;19.10;99.90;;;;;;4947297;28;20184;-70
2022/09/03 07:16:45;;;;;;;3.07;2.77;;;19.20;99.90;;;;;;4947572;29;20187;-70
2022/09/03 07:19:12;;;;;;;3.23;2.93;;;19.10;99.90;;;;;;4954901;28;20783;-70
2022/09/03 07:21:41;;;;;;;6.20;2.30;;;19.20;99.90;;;;;;4955151;28;20448;-70
2022/09/03 07:24:07;;;;;;;4.60;3.03;;;19.30;99.90;;;;;;4954749;28;20922;-69
2022/09/03 07:26:43;;;;;;;3.57;3.37;;;19.30;99.90;;;;;;4955248;28;20416;-70
2022/09/03 07:29:10;;;;;;;8.20;3.50;;;19.30;99.90;;;;;;4954789;29;20466;-70
2022/09/03 07:31:39;;;;;;;6.23;3.30;;;19.30;99.90;;;;;;4954883;28;20487;-70
2022/09/03 07:34:07;;;;;;;3.00;2.63;;;19.30;99.90;;;;;;4954821;28;20420;-70
2022/09/03 07:36:48;;;;;;;4.83;3.33;;;19.40;99.90;;;;;;4954769;28;20434;-69
2022/09/03 07:39:15;;;;;;;3.90;3.30;;;19.50;99.90;;;;;;4954568;28;20961;-70
2022/09/03 07:41:44;;;;;;;4.73;4.33;;;19.60;99.90;;;;;;4954777;29;20936;-69
2022/09/03 07:44:14;;;;;;;4.03;2.50;;;19.70;99.90;;;;;;4954570;28;20503;-70
2022/09/03 07:46:40;;;;;;;2.70;2.50;;;19.90;99.90;;;;;;4954659;28;20428;-69
2022/09/03 07:49:06;;;;;;;2.90;2.47;;;20.10;99.90;;;;;;4954056;28;20988;-69
2022/09/03 07:51:37;;;;;;;3.43;3.00;;;20.40;99.90;;;;;;4954725;29;20688;-70
2022/09/03 07:54:07;;;;;;;6.50;2.80;;;20.60;99.90;;;;;;4954431;28;20169;-69
2022/09/03 07:56:36;;;;;;;2.83;2.63;;;20.70;99.90;;;;;;4954309;29;20451;-69
2022/09/03 07:59:03;;;;;;;5.47;2.70;;;20.80;99.90;;;;;;4954035;28;20435;-70
2022/09/03 08:01:31;;;;;;;4.20;2.50;;;20.80;99.90;;;;;;4954085;29;20937;-71
2022/09/03 08:03:57;;;;;;;3.43;3.13;;;21.00;99.90;;;;;;4954357;28;20460;-69
2022/09/03 08:06:25;;;;;;;3.20;2.97;;;21.00;99.90;;;;;;4953954;29;20436;-70
2022/09/03 08:08:59;;;;;;;4.00;3.60;;;21.00;99.90;;;;;;4954063;28;20677;-69
2022/09/03 08:11:26;;;;;;;5.20;3.70;;;20.90;99.90;;;;;;4951376;29;20919;-70
2022/09/03 08:14:01;;;;;;;4.20;3.03;;;20.70;99.90;;;;;;4954268;28;20471;-69
2022/09/03 08:16:32;;;;;;;3.37;3.07;;;20.80;99.90;;;;;;4951871;29;20423;-69
2022/09/03 08:18:58;;;;;;;8.40;3.00;;;21.00;99.90;;;;;;4953847;28;20782;-69
2022/09/03 08:21:25;;;;;;;5.90;2.90;;;21.20;99.90;;;;;;4953715;29;20453;-70
2022/09/03 08:23:53;;;;;;;2.43;2.23;;;21.70;99.90;;;;;;4953815;28;20515;-69
2022/09/03 08:26:21;;;;;;;2.70;2.30;;;22.20;99.90;;;;;;4950313;29;20483;-69
2022/09/03 08:28:47;;;;;;;4.10;2.43;;;22.60;99.90;;;;;;4953812;28;20515;-69
2022/09/03 08:31:18;;;;;;;3.10;2.93;;;23.20;99.90;;;;;;4953322;28;20508;-69
2022/09/03 08:33:50;;;;;;;4.33;2.90;;;23.80;99.90;;;;;;4947196;29;20420;-68
2022/09/03 08:36:28;;;;;;;10.43;4.10;;;24.30;99.90;;;;;;4953702;28;20408;-70
2022/09/03 08:38:54;;;;;;;3.10;2.53;;;24.60;99.90;;;;;;4948048;29;20427;-68
2022/09/03 08:41:45;;;;;;;3.83;2.90;;;24.50;99.90;;;;;;4953338;29;20531;-69
2022/09/03 08:44:30;;;;;;;3.67;2.37;;;24.40;99.90;;;;;;4953510;28;20432;-69
2022/09/03 08:47:13;;;;;;;3.23;2.93;;;24.40;99.90;;;;;;4947193;29;20444;-69
2022/09/03 08:50:03;;;;;;;2.80;2.47;;;24.60;99.90;;;;;;4953003;29;20434;-69
2022/09/03 08:52:32;;;;;;;2.87;2.73;;;25.10;99.90;;;;;;4953319;28;20855;-69
2022/09/03 08:55:14;;;;;;;4.13;3.07;;;25.70;99.90;;;;;;4953621;28;20408;-69
2022/09/03 08:57:45;;;;;;;4.37;2.83;;;26.70;99.90;;;;;;4953189;28;20466;-69
2022/09/03 09:00:11;;;;;;;3.30;3.00;;;26.60;99.90;;;;;;4953197;28;20433;-70
2022/09/03 09:03:34;;;;;;;4.23;3.50;;;26.80;99.90;;;;;;4953303;28;20460;-69
2022/09/03 09:06:33;;;;;;;4.60;3.67;;;26.80;99.90;;;;;;4903586;29;20217;-70
2022/09/03 09:09:06;;;;;;;3.30;3.10;;;26.70;99.90;;;;;;4901462;29;20583;-72
2022/09/03 09:11:53;;;;;;;4.97;3.80;;;26.30;99.90;;;;;;4936601;29;20507;-70
2022/09/03 09:14:30;;;;;;;4.30;3.90;;;25.80;99.90;;;;;;4953026;28;20753;-70
2022/09/03 09:16:58;;;;;;;3.40;3.10;;;25.70;99.90;;;;;;4953353;28;20495;-70
2022/09/03 09:19:49;;;;;;;3.80;3.50;;;26.20;99.90;;;;;;4952922;28;20420;-70
2022/09/03 09:22:29;;;;;;;3.83;3.23;;;27.30;99.90;;;;;;4953051;28;20450;-70
2022/09/03 09:24:57;;;;;;;4.00;3.60;;;28.20;99.90;;;;;;4946859;29;20506;-71
2022/09/03 09:27:23;;;;;;;3.37;2.80;;;28.30;99.90;;;;;;4952728;28;20506;-70
2022/09/03 09:29:51;;;;;;;3.10;2.80;;;28.00;99.90;;;;;;4953123;28;20424;-70
2022/09/03 09:32:18;;;;;;;2.90;2.47;;;27.80;99.90;;;;;;4952819;28;20463;-70
2022/09/03 09:34:44;;;;;;;5.20;3.20;;;28.20;99.90;;;;;;4953065;28;20420;-69
2022/09/03 09:37:13;;;;;;;3.67;2.93;;;28.60;99.90;;;;;;4954603;28;20419;-70
2022/09/03 09:39:40;;;;;;;2.67;2.43;;;28.80;99.90;;;;;;4956970;28;20428;-70
2022/09/03 09:42:10;;;;;;;2.97;2.77;;;28.20;99.90;;;;;;4956672;28;20436;-70
2022/09/03 09:44:42;;;;;;;3.17;2.70;;;27.70;99.90;;;;;;4957002;28;20502;-70
2022/09/03 09:47:12;;;;;;;4.50;3.30;;;27.80;99.90;;;;;;4956234;28;20416;-71
2022/09/03 09:49:56;;;;;;;10.30;3.17;;;28.40;99.90;;;;;;4947687;29;20458;-70
2022/09/03 09:52:24;;;;;;;3.33;3.13;;;28.70;99.90;;;;;;4956384;28;20439;-70
2022/09/03 09:54:52;;;;;;;3.10;2.90;;;28.30;99.90;;;;;;4956786;28;20959;-70
2022/09/03 09:57:23;;;;;;;3.17;2.93;;;27.80;99.90;;;;;;4956016;28;20420;-69
2022/09/03 09:59:49;;;;;;;3.67;3.30;;;27.40;99.90;;;;;;4956726;28;20877;-69
2022/09/03 10:02:25;;;;;;;3.63;3.30;;;26.90;99.90;;;;;;4956157;28;20508;-70
2022/09/03 10:04:51;;;;;;;2.87;2.67;;;26.20;99.90;;;;;;4950058;29;20657;-70
2022/09/03 10:07:32;;;;;;;3.50;3.20;;;25.70;99.90;;;;;;4955970;28;20447;-70
2022/09/03 10:10:04;;;;;;;4.00;3.20;;;25.40;99.90;;;;;;4950518;29;20191;-70
2022/09/03 10:12:36;;;;;;;3.33;3.03;;;25.20;99.90;;;;;;4956201;28;20448;-70
2022/09/03 10:15:35;;;;;;;4.33;2.73;;;25.20;99.90;;;;;;4956531;28;20452;-68
2022/09/03 10:18:34;;;;;;;7.00;3.50;;;25.40;99.90;;;;;;4929336;28;20457;-70
2022/09/03 10:21:25;;;;;;;2.93;2.83;;;25.50;99.90;;;;;;4956071;29;20436;-69
2022/09/03 10:24:23;;;;;;;3.87;3.57;;;25.60;99.90;;;;;;4952853;29;20924;-70
2022/09/03 10:26:49;;;;;;;3.40;2.77;;;25.50;99.90;;;;;;4950161;29;20420;-68
2022/09/03 10:29:21;;;;;;;7.47;3.50;;;25.40;99.90;;;;;;4955609;29;20515;-71
2022/09/03 10:32:10;;;;;;;3.20;3.00;;;25.40;99.90;;;;;;4949479;29;20315;-69
2022/09/03 10:34:57;;;;;;;5.57;3.87;;;25.70;99.90;;;;;;4955147;29;20418;-70
2022/09/03 10:37:47;;;;;;;4.00;3.07;;;26.50;99.90;;;;;;4955597;28;20807;-69
2022/09/03 10:40:41;;;;;;;3.33;2.50;;;27.30;99.90;;;;;;4955362;28;20909;-70
2022/09/03 10:43:17;;;;;;;4.70;2.50;;;27.60;99.90;;;;;;4950834;29;20427;-71
2022/09/03 10:46:15;;;;;;;2.70;2.60;;;27.90;99.90;;;;;;4955679;28;20457;-70
2022/09/03 10:48:49;;;;;;;2.47;2.37;;;28.40;99.90;;;;;;4954857;28;20472;-70
2022/09/03 10:51:38;;;;;;;3.40;3.20;;;28.40;99.90;;;;;;4955502;29;20487;-70
2022/09/03 10:54:33;;;;;;;2.80;2.70;;;28.30;99.90;;;;;;4953737;29;20420;-70
2022/09/03 10:57:06;;;;;;;5.13;2.73;;;27.80;99.90;;;;;;4950890;29;20467;-71
2022/09/03 11:00:00;;;;;;;3.47;3.27;;;27.30;99.90;;;;;;4953766;29;20487;-70
2022/09/03 11:02:39;;;;;;;3.90;3.57;;;26.90;99.90;;;;;;4955193;28;20511;-69
2022/09/03 11:05:15;;;;;;;3.47;3.23;;;26.70;99.90;;;;;;4955415;28;20420;-70
2022/09/03 11:07:59;;;;;;;3.20;3.07;;;26.50;99.90;;;;;;4954799;29;20459;-70
2022/09/03 11:10:28;;;;;;;5.47;3.67;;;26.40;99.90;;;;;;4954919;28;20424;-70
2022/09/03 11:13:00;;;;;;;3.27;3.07;;;26.20;99.90;;;;;;4955392;28;20428;-70
2022/09/03 11:15:32;;;;;;;2.77;2.57;;;26.10;99.90;;;;;;4955012;28;20424;-71
2022/09/03 11:18:34;;;;;;;3.33;3.13;;;25.70;99.90;;;;;;4955117;28;20417;-69
2022/09/03 11:21:04;;;;;;;3.33;3.13;;;25.30;99.90;;;;;;4941265;29;20440;-71
2022/09/03 11:23:35;;;;;;;4.40;3.30;;;25.20;99.90;;;;;;4955109;28;20423;-70
2022/09/03 11:26:06;;;;;;;4.00;3.70;;;25.10;99.90;;;;;;4954894;29;20412;-69
2022/09/03 11:28:51;;;;;;;3.40;3.13;;;24.90;99.90;;;;;;4954652;28;20467;-69
2022/09/03 11:31:37;;;;;;;3.83;3.37;;;24.80;99.90;;;;;;4955059;29;20474;-69
2022/09/03 11:34:15;;;;;;;3.50;2.80;;;24.70;99.90;;;;;;4936606;29;20807;-70
2022/09/03 11:36:41;;;;;;;11.03;3.60;;;24.60;99.90;;;;;;4954867;29;20416;-70
2022/09/03 11:39:32;;;;;;;3.33;3.13;;;24.50;99.90;;;;;;4950285;29;20430;-70
2022/09/03 11:42:11;;;;;;;3.10;2.90;;;24.40;99.90;;;;;;4951607;29;20440;-70
2022/09/03 11:44:44;;;;;;;3.97;3.58;;;24.30;99.90;;;;;;4954105;29;20506;-70
2022/09/03 11:47:42;;;;;;;5.47;3.80;;;24.00;99.90;;;;;;4954376;28;20611;-69
2022/09/03 11:50:26;;;;;;;4.30;3.50;;;23.90;99.90;;;;;;4949307;29;20974;-70
2022/09/03 11:52:55;;;;;;;3.67;3.37;;;23.70;99.90;;;;;;4947563;29;20193;-70
2022/09/03 11:55:32;;;;;;;3.70;3.50;;;23.60;99.90;;;;;;4954267;28;20428;-71
2022/09/03 11:58:19;;;;;;;4.27;3.87;;;23.40;99.90;;;;;;4954335;28;20933;-69
2022/09/03 12:00:45;;;;;;;3.80;3.50;;;23.30;99.90;;;;;;4953636;29;20420;-70
2022/09/03 12:03:16;;;;;;;4.00;3.50;;;23.10;99.90;;;;;;4954318;28;20805;-69
2022/09/03 12:06:00;;;;;;;4.40;4.00;;;23.00;99.90;;;;;;4953264;28;20419;-70
2022/09/03 12:08:47;;;;;;;3.50;3.30;;;22.80;99.90;;;;;;4953401;28;20444;-70
2022/09/03 12:11:29;;;;;;;8.50;4.00;;;22.70;99.90;;;;;;4954081;29;20255;-69
2022/09/03 16:19:16;;;;;;;3.10;2.53;;;19.90;99.90;;;;;;5065013;27;20551;-73
2022/09/03 16:21:48;;;;;;;2.80;2.30;;;19.80;99.90;;;;;;5066561;27;20441;-77
2022/09/03 16:24:22;;;;;;;2.70;2.10;;;19.80;99.90;;;;;;5077593;27;20406;-75
2022/09/03 16:27:02;;;;;;;4.83;2.60;;;19.80;99.90;;;;;;5063842;28;20470;-78
2022/09/03 16:29:30;;;;;;;6.03;2.63;;;19.80;99.90;;;;;;5066870;28;20424;-78
2022/09/03 16:32:26;;;;;;;3.77;2.27;;;19.80;99.90;;;;;;5068685;28;20430;-76
2022/09/03 16:35:09;;;;;;;2.47;2.37;;;19.70;99.90;;;;;;5061085;28;20564;-77
2022/09/03 16:38:02;;;;;;;2.70;2.50;;;19.70;99.90;;;;;;5065483;28;20507;-77
2022/09/03 16:40:50;;;;;;;3.50;2.10;;;19.70;99.90;;;;;;5078889;28;20837;-75
2022/09/03 16:43:43;;;;;;;2.50;2.30;;;19.80;99.90;;;;;;5061905;28;20462;-79
2022/09/03 16:46:34;;;;;;;3.30;3.00;;;19.80;99.90;;;;;;5063985;27;20506;-73
2022/09/03 16:49:31;;;;;;;2.63;2.43;;;19.90;99.90;;;;;;5069825;28;20410;-78
2022/09/03 16:52:06;;;;;;;2.40;2.20;;;19.90;99.90;;;;;;5066119;28;20777;-73
2022/09/03 16:54:44;;;;;;;2.20;2.10;;;19.90;99.90;;;;;;5068440;28;20422;-75
2022/09/03 16:57:23;;;;;;;3.93;2.40;;;20.00;99.90;;;;;;5069466;28;20547;-78
2022/09/03 17:00:26;;;;;;;2.37;2.17;;;20.10;99.90;;;;;;5057078;28;20766;-76
2022/09/03 17:03:21;;;;;;;2.90;2.70;;;20.10;99.90;;;;;;5071233;28;20407;-74
2022/09/03 17:06:08;;;;;;;3.23;2.30;;;20.20;99.90;;;;;;5059192;28;20411;-78
2022/09/03 17:08:52;;;;;;;4.57;2.70;;;20.20;99.90;;;;;;5066002;28;20502;-73
2022/09/03 17:11:23;;;;;;;5.10;2.83;;;20.30;99.90;;;;;;5066465;28;20972;-74
2022/09/03 17:14:03;;;;;;;3.83;2.63;;;20.30;99.90;;;;;;5076213;28;20944;-74
2022/09/03 17:16:37;;;;;;;2.53;2.33;;;20.40;99.90;;;;;;5072314;28;20783;-74
2022/09/03 17:19:27;;;;;;;3.70;2.97;;;20.40;99.90;;;;;;5062073;28;20672;-74
2022/09/03 17:22:22;;;;;;;2.30;2.10;;;20.40;99.90;;;;;;5064710;28;20490;-76
2022/09/03 17:25:00;;;;;;;2.80;2.60;;;20.40;99.90;;;;;;5060645;28;20938;-77
2022/09/03 17:27:50;;;;;;;10.53;3.70;;;20.40;99.90;;;;;;5062227;28;20419;-77
2022/09/03 17:30:45;;;;;;;3.20;3.00;;;20.40;99.90;;;;;;5056420;28;20471;-76
2022/09/03 17:33:41;;;;;;;4.00;2.97;;;20.40;99.90;;;;;;5044811;28;20419;-75
2022/09/03 17:36:12;;;;;;;3.27;2.90;;;20.30;99.90;;;;;;5040932;28;20819;-74
2022/09/03 17:38:56;;;;;;;5.83;3.23;;;20.30;99.90;;;;;;5049801;28;20508;-75
2022/09/03 17:41:46;;;;;;;2.93;2.73;;;20.20;99.90;;;;;;5055779;28;20432;-74
2022/09/03 17:44:21;;;;;;;3.17;2.90;;;20.20;99.90;;;;;;5053479;28;20419;-74
2022/09/03 17:47:08;;;;;;;3.53;3.23;;;20.10;99.90;;;;;;5049851;28;20457;-74
2022/09/03 17:50:02;;;;;;;5.37;2.73;;;20.00;99.90;;;;;;5048240;28;20411;-74
2022/09/03 17:52:43;;;;;;;4.70;3.10;;;19.90;99.90;;;;;;5046876;28;20455;-76
2022/09/03 17:55:28;;;;;;;2.60;2.40;;;19.80;99.90;;;;;;5064064;28;20510;-75
2022/09/03 17:58:02;;;;;;;3.00;2.80;;;19.80;99.90;;;;;;5063038;28;20456;-75
2022/09/03 18:00:52;;;;;;;7.60;3.00;;;19.70;99.90;;;;;;5050404;28;20408;-75
2022/09/03 18:03:41;;;;;;;5.10;3.33;;;19.70;99.90;;;;;;5049771;28;20396;-74
2022/09/03 18:06:45;;;;;;;5.67;3.23;;;19.70;99.90;;;;;;5050529;28;20519;-74
2022/09/03 18:09:34;;;;;;;5.13;3.13;;;19.70;99.90;;;;;;4988701;28;20418;-74
2022/09/03 18:12:12;;;;;;;3.87;3.47;;;19.50;99.90;;;;;;5042844;28;20432;-76
2022/09/03 18:15:19;;;;;;;5.10;2.83;;;19.40;99.90;;;;;;5046010;28;20518;-76
2022/09/03 18:17:57;;;;;;;3.80;3.40;;;19.30;99.90;;;;;;5045278;27;20467;-76
2022/09/03 20:12:19;;;;;;;7.03;5.87;;;17.20;99.90;;;;;;5046984;28;20442;-72
2022/09/03 20:14:45;;;;;;;5.00;4.50;;;17.20;99.90;;;;;;5047552;28;20806;-71
2022/09/03 20:17:50;;;;;;;5.00;4.60;;;17.10;99.90;;;;;;5050133;28;20512;-71
2022/09/03 20:20:36;;;;;;;5.53;4.50;;;17.10;99.90;;;;;;5051161;28;20205;-71
2022/09/03 20:23:27;;;;;;;6.70;4.87;;;17.10;99.90;;;;;;5044539;28;20972;-71
2022/09/03 20:26:16;;;;;;;8.47;5.57;;;17.10;99.90;;;;;;5055581;28;20813;-72
2022/09/03 20:28:47;;;;;;;13.43;4.73;;;17.10;99.90;;;;;;5058633;28;20811;-71
2022/09/03 20:31:27;;;;;;;5.83;4.30;;;17.10;99.90;;;;;;5049491;28;20473;-71
2022/09/03 20:34:11;;;;;;;9.43;4.90;;;17.00;99.90;;;;;;5045418;28;20447;-70
2022/09/03 20:36:57;;;;;;;8.90;5.27;;;17.00;99.90;;;;;;5048842;28;20966;-71
2022/09/03 20:39:48;;;;;;;5.27;4.87;;;16.90;99.90;;;;;;5049760;28;20471;-70
2022/09/03 20:42:37;;;;;;;9.80;6.00;;;16.90;99.90;;;;;;5045759;28;20489;-71
2022/09/03 20:45:20;;;;;;;9.43;6.40;;;16.90;99.90;;;;;;5050217;28;20439;-71
2022/09/03 20:48:00;;;;;;;6.93;6.33;;;16.90;99.90;;;;;;5042560;28;20981;-71
2022/09/03 20:50:44;;;;;;;11.50;6.43;;;16.80;99.90;;;;;;5047021;28;20445;-71